Kissimmee Gateway Airport
KISM : now visible

Airfield :











YOU CAN JOIN US ON...

 
LOGIN :

Register | Disclaimer

   EN    FR    IT 

 









Legend :    VFR   Marginal VFR   IFR   Intensive IFR   Very Intensive IFR
Visi :
Ceiling :
>= 8 km
>= 3000ft
5 to 8 km
1000 to 3000 ft
1500m to 5 km
500 to 1000 ft
800 to 1500m
200 to 500 ft
< 800m
< 200 ft
Symbols :   Thunderstorms  Fog  Heavy snow  Heavy precipitations  Wind > 20 kt







- Airport Elevation : 82 ft


KISM - Kissimmee Gateway

CURRENT METAR :
  • 201556Z 27016G21KT 10SM SCT048 BKN060 22/11 A2999 RMK AO2 SLP158 T02170111 PNO $

EXPIRED METARs :
  • 201456Z 28016G23KT 10SM BKN043 BKN050 21/12 A2999 RMK AO2 SLP158 6//// T02110117 53014 PNO $
  • 201356Z 25012KT 10SM CLR 20/12 A2997 RMK AO2 SLP152 T02000122 PNO $

TAF KISM
Valid from the 20 at 12:00 until the 21 at 12:00 UTC


201120Z 2012/2112 24006KT P6SM SCT045
FM201500 27017G24KT P6SM SCT040
TEMPO 2017/2021 BKN040
FM210100 29003KT P6SM SKC
KZMA FIR / North America



MET'MAP, your aeronautical weather chart ! - Copyright ORBIFLY December 2007 - Disclaimer

ORBIFLY MET'MAP TEAM :

Programming & Development : Alexandra Zaïnal
Concept & Development : Baudouin d'Aumeries
Co-Development & Prog : Marc-Olivier Méhu
Technical & hardware support : Manuel Goepfert

Contact : metmap@orbifly.com




SOURCES & CREDITS :

   NOAA       Earth
Advisory